DLH27B EFHK-LOWW
Flight info
| Callsign | DLH27B |
|---|---|
| Flight time | 1h 48m |
| Altitude | 40000 |
| Route | KOIVU Y123 LARTI DCT LUTAL DCT BERIL/N0469F390 DCT BOKSU/N0472F400 DCT ASBIM DCT BAVOK DCT MIKOV MIKOV8W |
| Aircraft | A346/H-SDE2E3FGHIJ3J4J5M1RWXY/LB1D1 |
Departure
| Time | 2026-04-21 14:46 |
|---|---|
| Airport | Helsinki Vantaa Airport (EFHK) |
Arrival
| Time | 2026-04-21 16:34 |
|---|---|
| Airport | Vienna International Airport (LOWW) |
| Time | Latitude | Longitude | Altitude | Speed | Heading |
|---|---|---|---|---|---|
| 2026-04-21 14:26 | 60.31329 | 24.95756 | 175 ft | 0 kts | 317° |
| 2026-04-21 14:37 | 60.31321 | 24.95772 | 175 ft | 4 kts | 317° |
| 2026-04-21 14:37 | 60.31300 | 24.95807 | 175 ft | 4 kts | 322° |
| 2026-04-21 14:38 | 60.31279 | 24.95835 | 175 ft | 4 kts | 336° |
| 2026-04-21 14:38 | 60.31259 | 24.95847 | 175 ft | 3 kts | 348° |
| 2026-04-21 14:38 | 60.31236 | 24.95862 | 175 ft | 4 kts | 328° |
| 2026-04-21 14:38 | 60.31223 | 24.95887 | 175 ft | 4 kts | 293° |
| 2026-04-21 14:39 | 60.31220 | 24.95930 | 175 ft | 4 kts | 269° |
| 2026-04-21 14:39 | 60.31224 | 24.95968 | 175 ft | 4 kts | 235° |
| 2026-04-21 14:39 | 60.31238 | 24.96002 | 175 ft | 4 kts | 228° |
| 2026-04-21 14:39 | 60.31248 | 24.96024 | 175 ft | 0 kts | 227° |
| 2026-04-21 14:41 | 60.31237 | 24.95994 | 175 ft | 12 kts | 241° |
| 2026-04-21 14:41 | 60.31211 | 24.95730 | 175 ft | 20 kts | 231° |
| 2026-04-21 14:41 | 60.31194 | 24.95476 | 175 ft | 21 kts | 306° |
| 2026-04-21 14:42 | 60.31301 | 24.95255 | 175 ft | 23 kts | 318° |
| 2026-04-21 14:42 | 60.31420 | 24.95026 | 175 ft | 24 kts | 319° |
| 2026-04-21 14:42 | 60.31547 | 24.95118 | 178 ft | 23 kts | 45° |
| 2026-04-21 14:42 | 60.31657 | 24.95362 | 179 ft | 24 kts | 48° |
| 2026-04-21 14:43 | 60.31772 | 24.95612 | 178 ft | 25 kts | 47° |
| 2026-04-21 14:43 | 60.31896 | 24.95879 | 178 ft | 23 kts | 46° |
| 2026-04-21 14:43 | 60.32016 | 24.95866 | 181 ft | 23 kts | 319° |
| 2026-04-21 14:43 | 60.32190 | 24.95542 | 182 ft | 37 kts | 317° |
| 2026-04-21 14:44 | 60.32388 | 24.95242 | 197 ft | 35 kts | 339° |
| 2026-04-21 14:44 | 60.32610 | 24.95094 | 186 ft | 33 kts | 343° |
| 2026-04-21 14:44 | 60.32835 | 24.94954 | 184 ft | 34 kts | 342° |
| 2026-04-21 14:44 | 60.33020 | 24.94679 | 194 ft | 32 kts | 317° |
| 2026-04-21 14:45 | 60.33100 | 24.94378 | 202 ft | 24 kts | 248° |
| 2026-04-21 14:45 | 60.32968 | 24.94067 | 192 ft | 51 kts | 227° |
| 2026-04-21 14:45 | 60.32508 | 24.93059 | 180 ft | 140 kts | 227° |
| 2026-04-21 14:45 | 60.31696 | 24.91318 | 453 ft | 185 kts | 230° |
| 2026-04-21 14:46 | 60.30796 | 24.89348 | 1083 ft | 204 kts | 231° |
| 2026-04-21 14:46 | 60.29894 | 24.86988 | 1703 ft | 220 kts | 240° |
| 2026-04-21 14:46 | 60.29318 | 24.84047 | 2262 ft | 235 kts | 269° |
| 2026-04-21 14:46 | 60.29579 | 24.80729 | 2930 ft | 247 kts | 294° |
| 2026-04-21 14:47 | 60.30079 | 24.77321 | 3774 ft | 262 kts | 275° |
| 2026-04-21 14:47 | 60.29737 | 24.73709 | 4801 ft | 271 kts | 246° |
| 2026-04-21 14:47 | 60.28545 | 24.70721 | 5855 ft | 278 kts | 216° |
| 2026-04-21 14:47 | 60.26740 | 24.69282 | 6757 ft | 285 kts | 185° |
| 2026-04-21 14:48 | 60.24738 | 24.69103 | 7656 ft | 291 kts | 179° |
| 2026-04-21 14:48 | 60.22718 | 24.69042 | 8547 ft | 297 kts | 179° |
| 2026-04-21 14:48 | 60.20626 | 24.68972 | 9463 ft | 303 kts | 180° |
| 2026-04-21 14:48 | 60.18488 | 24.68871 | 10353 ft | 310 kts | 180° |
| 2026-04-21 14:49 | 60.16275 | 24.68743 | 10962 ft | 326 kts | 180° |
| 2026-04-21 14:49 | 60.13938 | 24.68594 | 11477 ft | 344 kts | 180° |
| 2026-04-21 14:49 | 60.11485 | 24.68431 | 12045 ft | 359 kts | 181° |
| 2026-04-21 14:49 | 60.08994 | 24.68256 | 12921 ft | 365 kts | 180° |
| 2026-04-21 14:50 | 60.07274 | 24.68136 | 13598 ft | 366 kts | 180° |
| 2026-04-21 14:50 | 60.03871 | 24.67900 | 14750 ft | 372 kts | 180° |
| 2026-04-21 14:50 | 60.01262 | 24.67719 | 15545 ft | 377 kts | 180° |
| 2026-04-21 14:50 | 59.98633 | 24.67536 | 16371 ft | 381 kts | 180° |
| 2026-04-21 14:51 | 59.95993 | 24.67353 | 17178 ft | 386 kts | 180° |
| 2026-04-21 14:51 | 59.93295 | 24.67166 | 18004 ft | 390 kts | 180° |
| 2026-04-21 14:51 | 59.90567 | 24.66979 | 18788 ft | 394 kts | 180° |
| 2026-04-21 14:51 | 59.87815 | 24.66789 | 19479 ft | 399 kts | 180° |
| 2026-04-21 14:52 | 59.85023 | 24.66365 | 20159 ft | 405 kts | 185° |
| 2026-04-21 14:52 | 59.82221 | 24.65495 | 20859 ft | 410 kts | 190° |
| 2026-04-21 14:52 | 59.79424 | 24.64226 | 21542 ft | 415 kts | 192° |
| 2026-04-21 14:52 | 59.76602 | 24.62867 | 22251 ft | 419 kts | 192° |
| 2026-04-21 14:53 | 59.73751 | 24.61496 | 22920 ft | 424 kts | 192° |
| 2026-04-21 14:53 | 59.70865 | 24.60125 | 23601 ft | 429 kts | 192° |
| 2026-04-21 14:53 | 59.67947 | 24.58753 | 24184 ft | 433 kts | 192° |
| 2026-04-21 14:53 | 59.64995 | 24.57436 | 24777 ft | 436 kts | 190° |
| 2026-04-21 14:54 | 59.62010 | 24.56243 | 25388 ft | 439 kts | 189° |
| 2026-04-21 14:54 | 59.58997 | 24.55078 | 25975 ft | 443 kts | 189° |
| 2026-04-21 14:54 | 59.55958 | 24.53904 | 26530 ft | 447 kts | 189° |
| 2026-04-21 14:54 | 59.52894 | 24.52712 | 27094 ft | 451 kts | 189° |
| 2026-04-21 14:55 | 59.49796 | 24.51502 | 27678 ft | 455 kts | 189° |
| 2026-04-21 14:55 | 59.46686 | 24.50284 | 28246 ft | 458 kts | 189° |
| 2026-04-21 14:55 | 59.43580 | 24.49068 | 28793 ft | 462 kts | 189° |
| 2026-04-21 14:55 | 59.40411 | 24.47828 | 29346 ft | 466 kts | 189° |
| 2026-04-21 14:56 | 59.37222 | 24.46581 | 29895 ft | 469 kts | 189° |
| 2026-04-21 14:56 | 59.34003 | 24.45326 | 30373 ft | 473 kts | 189° |
| 2026-04-21 14:56 | 59.30767 | 24.44066 | 30813 ft | 476 kts | 189° |
| 2026-04-21 14:56 | 59.27505 | 24.42797 | 31260 ft | 479 kts | 189° |
| 2026-04-21 14:57 | 59.24226 | 24.41524 | 31708 ft | 482 kts | 189° |
| 2026-04-21 14:57 | 59.20924 | 24.40246 | 32156 ft | 485 kts | 189° |
| 2026-04-21 14:57 | 59.17604 | 24.38963 | 32599 ft | 488 kts | 189° |
| 2026-04-21 14:57 | 59.14257 | 24.37672 | 33022 ft | 491 kts | 189° |
| 2026-04-21 14:58 | 59.10889 | 24.36375 | 33472 ft | 495 kts | 189° |
| 2026-04-21 14:58 | 59.07513 | 24.35077 | 33973 ft | 495 kts | 189° |
| 2026-04-21 14:58 | 59.04136 | 24.33783 | 34493 ft | 494 kts | 189° |
| 2026-04-21 14:58 | 59.00750 | 24.32487 | 35006 ft | 493 kts | 189° |
| 2026-04-21 14:59 | 58.97388 | 24.31205 | 35479 ft | 492 kts | 189° |
| 2026-04-21 14:59 | 58.94071 | 24.29942 | 35917 ft | 491 kts | 189° |
| 2026-04-21 14:59 | 58.90707 | 24.28663 | 36323 ft | 491 kts | 189° |
| 2026-04-21 14:59 | 58.87354 | 24.27391 | 36732 ft | 491 kts | 189° |
| 2026-04-21 15:00 | 58.83996 | 24.26119 | 37124 ft | 490 kts | 189° |
| 2026-04-21 15:00 | 58.80681 | 24.24866 | 37505 ft | 490 kts | 189° |
| 2026-04-21 15:00 | 58.77329 | 24.23601 | 37875 ft | 490 kts | 189° |
| 2026-04-21 15:00 | 58.73973 | 24.22337 | 38233 ft | 490 kts | 189° |
| 2026-04-21 15:01 | 58.70623 | 24.21078 | 38560 ft | 490 kts | 189° |
| 2026-04-21 15:01 | 58.67289 | 24.19828 | 38824 ft | 491 kts | 189° |
| 2026-04-21 15:01 | 58.63913 | 24.18564 | 39010 ft | 493 kts | 189° |
| 2026-04-21 15:01 | 58.60552 | 24.17309 | 39192 ft | 494 kts | 189° |
| 2026-04-21 15:02 | 58.57205 | 24.16061 | 39385 ft | 495 kts | 189° |
| 2026-04-21 15:02 | 58.53814 | 24.14799 | 39571 ft | 496 kts | 189° |
| 2026-04-21 15:02 | 58.50393 | 24.13529 | 39754 ft | 497 kts | 189° |
| 2026-04-21 15:02 | 58.47024 | 24.12280 | 39907 ft | 498 kts | 189° |
| 2026-04-21 15:03 | 58.43608 | 24.11015 | 40082 ft | 499 kts | 189° |
| 2026-04-21 15:03 | 58.37913 | 24.08913 | 40135 ft | 500 kts | 189° |
| 2026-04-21 15:04 | 58.31016 | 24.06379 | 40154 ft | 508 kts | 189° |
| 2026-04-21 15:04 | 58.22883 | 24.03403 | 40159 ft | 517 kts | 189° |
| 2026-04-21 15:05 | 58.16963 | 24.01244 | 40162 ft | 518 kts | 189° |
| 2026-04-21 15:05 | 58.06338 | 23.97386 | 40167 ft | 518 kts | 189° |
| 2026-04-21 15:06 | 57.99268 | 23.94832 | 40169 ft | 517 kts | 189° |
| 2026-04-21 15:06 | 57.92210 | 23.92293 | 40164 ft | 517 kts | 189° |
| 2026-04-21 15:07 | 57.85144 | 23.89847 | 40172 ft | 517 kts | 188° |
| 2026-04-21 15:07 | 57.78029 | 23.87522 | 40170 ft | 517 kts | 188° |
| 2026-04-21 15:08 | 57.70955 | 23.85216 | 40171 ft | 518 kts | 188° |
| 2026-04-21 15:08 | 57.63848 | 23.82895 | 40161 ft | 518 kts | 188° |
| 2026-04-21 15:09 | 57.56757 | 23.80583 | 40163 ft | 517 kts | 188° |
| 2026-04-21 15:09 | 57.49677 | 23.78284 | 40162 ft | 517 kts | 188° |
| 2026-04-21 15:10 | 57.42593 | 23.75993 | 40157 ft | 517 kts | 188° |
| 2026-04-21 15:10 | 57.35524 | 23.73715 | 40164 ft | 517 kts | 188° |
| 2026-04-21 15:11 | 57.28475 | 23.71451 | 40172 ft | 516 kts | 188° |
| 2026-04-21 15:11 | 57.21381 | 23.69183 | 40165 ft | 516 kts | 188° |
| 2026-04-21 15:12 | 57.14329 | 23.66937 | 40167 ft | 516 kts | 188° |
| 2026-04-21 15:12 | 57.07241 | 23.64688 | 40173 ft | 516 kts | 188° |
| 2026-04-21 15:13 | 57.00189 | 23.62459 | 40172 ft | 516 kts | 188° |
| 2026-04-21 15:13 | 56.93102 | 23.60228 | 40161 ft | 516 kts | 188° |
| 2026-04-21 15:14 | 56.86057 | 23.58018 | 40162 ft | 516 kts | 188° |
| 2026-04-21 15:14 | 56.78984 | 23.55808 | 40164 ft | 516 kts | 188° |
| 2026-04-21 15:15 | 56.71905 | 23.53604 | 40156 ft | 515 kts | 188° |
| 2026-04-21 15:15 | 56.64838 | 23.51412 | 40173 ft | 515 kts | 187° |
| 2026-04-21 15:16 | 56.57762 | 23.49226 | 40168 ft | 515 kts | 187° |
| 2026-04-21 15:16 | 56.50668 | 23.47042 | 40174 ft | 515 kts | 187° |
| 2026-04-21 15:17 | 56.43596 | 23.44873 | 40161 ft | 515 kts | 187° |
| 2026-04-21 15:17 | 56.36555 | 23.42769 | 40171 ft | 515 kts | 186° |
| 2026-04-21 15:18 | 56.29425 | 23.41386 | 40164 ft | 514 kts | 184° |
| 2026-04-21 15:18 | 56.22306 | 23.40046 | 40165 ft | 514 kts | 184° |
| 2026-04-21 15:19 | 56.15189 | 23.38706 | 40162 ft | 514 kts | 184° |
| 2026-04-21 15:19 | 56.08117 | 23.37389 | 40166 ft | 514 kts | 184° |
| 2026-04-21 15:20 | 56.00999 | 23.36069 | 40156 ft | 514 kts | 184° |
| 2026-04-21 15:20 | 55.93873 | 23.34754 | 40157 ft | 515 kts | 184° |
| 2026-04-21 15:21 | 55.86747 | 23.33444 | 40153 ft | 515 kts | 184° |
| 2026-04-21 15:21 | 55.79618 | 23.32139 | 40152 ft | 515 kts | 184° |
| 2026-04-21 15:22 | 55.72484 | 23.30837 | 40151 ft | 515 kts | 184° |
| 2026-04-21 15:22 | 55.65354 | 23.29541 | 40153 ft | 514 kts | 184° |
| 2026-04-21 15:23 | 55.58283 | 23.28260 | 40150 ft | 514 kts | 184° |
| 2026-04-21 15:23 | 55.51164 | 23.26975 | 40149 ft | 514 kts | 184° |
| 2026-04-21 15:24 | 55.44048 | 23.25695 | 40149 ft | 514 kts | 184° |
| 2026-04-21 15:24 | 55.36932 | 23.24421 | 40141 ft | 513 kts | 184° |
| 2026-04-21 15:25 | 55.29823 | 23.23151 | 40140 ft | 513 kts | 184° |
| 2026-04-21 15:25 | 55.22716 | 23.21888 | 40142 ft | 513 kts | 184° |
| 2026-04-21 15:26 | 55.15616 | 23.20629 | 40144 ft | 513 kts | 184° |
| 2026-04-21 15:26 | 55.08515 | 23.19375 | 40137 ft | 513 kts | 184° |
| 2026-04-21 15:27 | 55.01413 | 23.18125 | 40133 ft | 513 kts | 184° |
| 2026-04-21 15:27 | 54.94322 | 23.16881 | 40133 ft | 513 kts | 184° |
| 2026-04-21 15:28 | 54.87220 | 23.15640 | 40137 ft | 513 kts | 184° |
| 2026-04-21 15:28 | 54.80168 | 23.14412 | 40139 ft | 512 kts | 184° |
| 2026-04-21 15:29 | 54.73076 | 23.13181 | 40130 ft | 512 kts | 184° |
| 2026-04-21 15:29 | 54.65981 | 23.11954 | 40133 ft | 512 kts | 184° |
| 2026-04-21 15:30 | 54.58883 | 23.10731 | 40132 ft | 512 kts | 184° |
| 2026-04-21 15:30 | 54.51795 | 23.09512 | 40133 ft | 512 kts | 184° |
| 2026-04-21 15:31 | 54.44702 | 23.08298 | 40142 ft | 511 kts | 184° |
| 2026-04-21 15:31 | 54.37647 | 23.06689 | 40130 ft | 512 kts | 190° |
| 2026-04-21 15:32 | 54.30793 | 23.03311 | 40128 ft | 513 kts | 200° |
| 2026-04-21 15:32 | 54.24330 | 22.98096 | 40127 ft | 514 kts | 209° |
| 2026-04-21 15:33 | 54.18356 | 22.91376 | 40127 ft | 514 kts | 214° |
| 2026-04-21 15:33 | 54.12477 | 22.84411 | 40125 ft | 514 kts | 214° |
| 2026-04-21 15:34 | 54.06627 | 22.77528 | 40132 ft | 513 kts | 214° |
| 2026-04-21 15:34 | 54.00728 | 22.70630 | 40131 ft | 513 kts | 214° |
| 2026-04-21 15:35 | 53.94832 | 22.63766 | 40131 ft | 513 kts | 214° |
| 2026-04-21 15:35 | 53.88976 | 22.56974 | 40119 ft | 513 kts | 214° |
| 2026-04-21 15:36 | 53.83061 | 22.50137 | 40132 ft | 514 kts | 214° |
| 2026-04-21 15:36 | 53.77124 | 22.43301 | 40135 ft | 514 kts | 214° |
| 2026-04-21 15:37 | 53.71231 | 22.36538 | 40135 ft | 514 kts | 213° |
| 2026-04-21 15:37 | 53.65290 | 22.29745 | 40130 ft | 514 kts | 214° |
| 2026-04-21 15:38 | 53.59366 | 22.22994 | 40132 ft | 513 kts | 213° |
| 2026-04-21 15:38 | 53.53436 | 22.16258 | 40132 ft | 513 kts | 213° |
| 2026-04-21 15:39 | 53.47538 | 22.09580 | 40130 ft | 513 kts | 213° |
| 2026-04-21 15:39 | 53.41593 | 22.02876 | 40125 ft | 513 kts | 213° |
| 2026-04-21 15:40 | 53.35696 | 21.96245 | 40125 ft | 513 kts | 213° |
| 2026-04-21 15:40 | 53.29763 | 21.89595 | 40125 ft | 512 kts | 213° |
| 2026-04-21 15:41 | 53.23814 | 21.82952 | 40126 ft | 512 kts | 213° |
| 2026-04-21 15:41 | 53.17917 | 21.76392 | 40123 ft | 512 kts | 213° |
| 2026-04-21 15:42 | 53.12108 | 21.69521 | 40120 ft | 512 kts | 216° |
| 2026-04-21 15:42 | 53.06359 | 21.62500 | 40119 ft | 512 kts | 216° |
| 2026-04-21 15:43 | 53.00593 | 21.55491 | 40120 ft | 512 kts | 216° |
| 2026-04-21 15:43 | 52.94872 | 21.48554 | 40117 ft | 512 kts | 216° |
| 2026-04-21 15:44 | 52.89098 | 21.41573 | 40114 ft | 512 kts | 216° |
| 2026-04-21 15:44 | 52.83362 | 21.34659 | 40113 ft | 512 kts | 216° |
| 2026-04-21 15:45 | 52.77591 | 21.27729 | 40111 ft | 511 kts | 216° |
| 2026-04-21 15:45 | 52.71821 | 21.20822 | 40108 ft | 511 kts | 216° |
| 2026-04-21 15:46 | 52.66093 | 21.13986 | 40108 ft | 511 kts | 216° |
| 2026-04-21 15:46 | 52.60312 | 21.07112 | 40109 ft | 511 kts | 216° |
| 2026-04-21 15:47 | 52.54534 | 21.00266 | 40116 ft | 511 kts | 216° |
| 2026-04-21 15:47 | 52.48791 | 20.93481 | 40120 ft | 511 kts | 216° |
| 2026-04-21 15:48 | 52.43011 | 20.86675 | 40122 ft | 511 kts | 216° |
| 2026-04-21 15:48 | 52.37219 | 20.79879 | 40122 ft | 510 kts | 216° |
| 2026-04-21 15:49 | 52.31476 | 20.73162 | 40121 ft | 510 kts | 216° |
| 2026-04-21 15:49 | 52.25700 | 20.66426 | 40110 ft | 510 kts | 216° |
| 2026-04-21 15:50 | 52.19907 | 20.59695 | 40101 ft | 510 kts | 216° |
| 2026-04-21 15:50 | 52.14112 | 20.52982 | 40100 ft | 509 kts | 216° |
| 2026-04-21 15:51 | 52.08368 | 20.46351 | 40105 ft | 509 kts | 216° |
| 2026-04-21 15:51 | 52.02580 | 20.39689 | 40106 ft | 509 kts | 216° |
| 2026-04-21 15:52 | 51.97757 | 20.34156 | 40108 ft | 509 kts | 216° |
| 2026-04-21 15:52 | 51.91036 | 20.26472 | 40109 ft | 508 kts | 216° |
| 2026-04-21 15:53 | 51.86195 | 20.20951 | 40117 ft | 507 kts | 216° |
| 2026-04-21 15:53 | 51.80442 | 20.14411 | 40113 ft | 507 kts | 216° |
| 2026-04-21 15:54 | 51.74662 | 20.07862 | 40125 ft | 507 kts | 216° |
| 2026-04-21 15:54 | 51.68864 | 20.01313 | 40118 ft | 507 kts | 216° |
| 2026-04-21 15:55 | 51.63101 | 19.94824 | 40111 ft | 507 kts | 215° |
| 2026-04-21 15:55 | 51.57303 | 19.88317 | 40112 ft | 507 kts | 215° |
| 2026-04-21 15:56 | 51.51489 | 19.81815 | 40113 ft | 507 kts | 215° |
| 2026-04-21 15:56 | 51.45729 | 19.75390 | 40125 ft | 507 kts | 215° |
| 2026-04-21 15:57 | 51.39909 | 19.68920 | 40123 ft | 507 kts | 215° |
| 2026-04-21 15:57 | 51.34126 | 19.62511 | 40124 ft | 507 kts | 215° |
| 2026-04-21 15:58 | 51.28355 | 19.56137 | 40121 ft | 506 kts | 215° |
| 2026-04-21 15:58 | 51.22546 | 19.49738 | 40123 ft | 506 kts | 215° |
| 2026-04-21 15:59 | 51.16732 | 19.43354 | 40125 ft | 506 kts | 215° |
| 2026-04-21 15:59 | 51.10949 | 19.37025 | 40127 ft | 506 kts | 215° |
| 2026-04-21 16:00 | 51.05136 | 19.30681 | 40135 ft | 506 kts | 215° |
| 2026-04-21 16:00 | 50.99352 | 19.24389 | 40133 ft | 506 kts | 215° |
| 2026-04-21 16:01 | 50.93546 | 19.18092 | 40130 ft | 506 kts | 215° |
| 2026-04-21 16:01 | 50.87713 | 19.11787 | 40128 ft | 506 kts | 215° |
| 2026-04-21 16:02 | 50.81894 | 19.05514 | 40134 ft | 506 kts | 215° |
| 2026-04-21 16:02 | 50.76085 | 18.99273 | 40138 ft | 506 kts | 215° |
| 2026-04-21 16:03 | 50.70244 | 18.93018 | 40134 ft | 506 kts | 215° |
| 2026-04-21 16:03 | 50.64421 | 18.86801 | 40138 ft | 506 kts | 215° |
| 2026-04-21 16:04 | 50.58603 | 18.80607 | 40130 ft | 506 kts | 215° |
| 2026-04-21 16:04 | 50.52759 | 18.74405 | 40135 ft | 506 kts | 215° |
| 2026-04-21 16:05 | 50.46953 | 18.68264 | 40136 ft | 505 kts | 215° |
| 2026-04-21 16:05 | 50.41105 | 18.62093 | 40138 ft | 504 kts | 215° |
| 2026-04-21 16:06 | 50.35302 | 18.55989 | 40137 ft | 505 kts | 215° |
| 2026-04-21 16:06 | 50.29487 | 18.49893 | 40131 ft | 504 kts | 215° |
| 2026-04-21 16:07 | 50.23647 | 18.43787 | 40131 ft | 504 kts | 215° |
| 2026-04-21 16:07 | 50.17809 | 18.37698 | 40132 ft | 504 kts | 215° |
| 2026-04-21 16:08 | 50.09066 | 18.28621 | 40131 ft | 503 kts | 215° |
| 2026-04-21 16:09 | 50.03262 | 18.22607 | 40132 ft | 502 kts | 216° |
| 2026-04-21 16:09 | 49.97696 | 18.16090 | 40130 ft | 501 kts | 222° |
| 2026-04-21 16:10 | 49.92397 | 18.09027 | 40136 ft | 501 kts | 222° |
| 2026-04-21 16:10 | 49.87102 | 18.01990 | 40124 ft | 500 kts | 223° |
| 2026-04-21 16:11 | 49.81845 | 17.95015 | 40125 ft | 500 kts | 222° |
| 2026-04-21 16:11 | 49.76565 | 17.88040 | 40127 ft | 500 kts | 222° |
| 2026-04-21 16:12 | 49.71256 | 17.81054 | 40118 ft | 495 kts | 223° |
| 2026-04-21 16:12 | 49.68635 | 17.77613 | 39691 ft | 491 kts | 223° |
| 2026-04-21 16:12 | 49.66032 | 17.74194 | 39135 ft | 491 kts | 222° |
| 2026-04-21 16:12 | 49.63429 | 17.70783 | 38539 ft | 491 kts | 223° |
| 2026-04-21 16:13 | 49.60859 | 17.67414 | 37873 ft | 490 kts | 223° |
| 2026-04-21 16:13 | 49.58257 | 17.64009 | 37213 ft | 490 kts | 222° |
| 2026-04-21 16:13 | 49.55644 | 17.60599 | 36562 ft | 490 kts | 222° |
| 2026-04-21 16:13 | 49.53041 | 17.57207 | 35940 ft | 491 kts | 222° |
| 2026-04-21 16:14 | 49.50418 | 17.53797 | 35343 ft | 490 kts | 222° |
| 2026-04-21 16:14 | 49.47845 | 17.50465 | 34755 ft | 489 kts | 222° |
| 2026-04-21 16:14 | 49.45238 | 17.47083 | 34171 ft | 489 kts | 221° |
| 2026-04-21 16:14 | 49.42638 | 17.43711 | 33486 ft | 489 kts | 222° |
| 2026-04-21 16:15 | 49.40024 | 17.40330 | 32811 ft | 491 kts | 222° |
| 2026-04-21 16:15 | 49.37392 | 17.36924 | 32153 ft | 492 kts | 221° |
| 2026-04-21 16:15 | 49.34802 | 17.33579 | 31521 ft | 492 kts | 221° |
| 2026-04-21 16:15 | 49.32170 | 17.30199 | 30893 ft | 491 kts | 222° |
| 2026-04-21 16:16 | 49.29550 | 17.26836 | 30275 ft | 489 kts | 221° |
| 2026-04-21 16:16 | 49.26945 | 17.23489 | 29552 ft | 487 kts | 221° |
| 2026-04-21 16:16 | 49.24366 | 17.20184 | 28836 ft | 489 kts | 222° |
| 2026-04-21 16:16 | 49.21750 | 17.16830 | 28125 ft | 490 kts | 222° |
| 2026-04-21 16:17 | 49.19145 | 17.13496 | 27515 ft | 485 kts | 221° |
| 2026-04-21 16:17 | 49.16557 | 17.10198 | 26815 ft | 481 kts | 221° |
| 2026-04-21 16:17 | 49.13997 | 17.06929 | 26185 ft | 476 kts | 222° |
| 2026-04-21 16:17 | 49.11469 | 17.03716 | 25513 ft | 466 kts | 221° |
| 2026-04-21 16:18 | 49.08979 | 17.00557 | 24700 ft | 455 kts | 222° |
| 2026-04-21 16:18 | 49.06587 | 16.97515 | 24083 ft | 440 kts | 221° |
| 2026-04-21 16:18 | 49.04263 | 16.94565 | 23432 ft | 427 kts | 222° |
| 2026-04-21 16:18 | 49.02024 | 16.91735 | 22720 ft | 417 kts | 221° |
| 2026-04-21 16:19 | 48.99805 | 16.88923 | 22007 ft | 413 kts | 222° |
| 2026-04-21 16:19 | 48.97600 | 16.86129 | 21358 ft | 409 kts | 221° |
| 2026-04-21 16:19 | 48.95247 | 16.83680 | 20648 ft | 412 kts | 204° |
| 2026-04-21 16:19 | 48.92446 | 16.82706 | 20326 ft | 418 kts | 188° |
| 2026-04-21 16:20 | 48.89578 | 16.82309 | 19779 ft | 418 kts | 185° |
| 2026-04-21 16:20 | 48.86693 | 16.81961 | 19251 ft | 415 kts | 186° |
| 2026-04-21 16:20 | 48.83820 | 16.81569 | 18724 ft | 412 kts | 186° |
| 2026-04-21 16:20 | 48.80971 | 16.81140 | 18179 ft | 409 kts | 186° |
| 2026-04-21 16:21 | 48.78138 | 16.80685 | 17577 ft | 406 kts | 187° |
| 2026-04-21 16:21 | 48.75338 | 16.80218 | 17007 ft | 403 kts | 187° |
| 2026-04-21 16:21 | 48.72559 | 16.79738 | 16437 ft | 401 kts | 187° |
| 2026-04-21 16:21 | 48.69828 | 16.79267 | 15892 ft | 398 kts | 188° |
| 2026-04-21 16:22 | 48.67080 | 16.78780 | 15342 ft | 395 kts | 187° |
| 2026-04-21 16:22 | 48.64349 | 16.78302 | 14806 ft | 393 kts | 188° |
| 2026-04-21 16:22 | 48.61634 | 16.77823 | 14277 ft | 390 kts | 188° |
| 2026-04-21 16:22 | 48.58943 | 16.77351 | 13739 ft | 388 kts | 187° |
| 2026-04-21 16:23 | 48.56269 | 16.76879 | 13150 ft | 385 kts | 187° |
| 2026-04-21 16:23 | 48.53648 | 16.76416 | 12578 ft | 383 kts | 187° |
| 2026-04-21 16:23 | 48.51014 | 16.75953 | 12072 ft | 378 kts | 187° |
| 2026-04-21 16:23 | 48.48408 | 16.75502 | 11601 ft | 373 kts | 187° |
| 2026-04-21 16:24 | 48.45839 | 16.75056 | 11133 ft | 370 kts | 187° |
| 2026-04-21 16:24 | 48.43295 | 16.74610 | 10662 ft | 368 kts | 187° |
| 2026-04-21 16:24 | 48.40739 | 16.74161 | 10216 ft | 369 kts | 187° |
| 2026-04-21 16:24 | 48.38193 | 16.73712 | 9745 ft | 366 kts | 187° |
| 2026-04-21 16:25 | 48.35692 | 16.73274 | 9247 ft | 363 kts | 186° |
| 2026-04-21 16:25 | 48.33187 | 16.72834 | 8761 ft | 360 kts | 186° |
| 2026-04-21 16:25 | 48.30704 | 16.72401 | 8280 ft | 357 kts | 186° |
| 2026-04-21 16:25 | 48.28234 | 16.71972 | 7812 ft | 356 kts | 186° |
| 2026-04-21 16:26 | 48.25771 | 16.71546 | 7348 ft | 355 kts | 186° |
| 2026-04-21 16:26 | 48.23353 | 16.71127 | 6902 ft | 353 kts | 185° |
| 2026-04-21 16:26 | 48.20914 | 16.70705 | 6440 ft | 350 kts | 185° |
| 2026-04-21 16:26 | 48.18494 | 16.70289 | 5959 ft | 348 kts | 185° |
| 2026-04-21 16:27 | 48.16086 | 16.69875 | 5482 ft | 346 kts | 186° |
| 2026-04-21 16:27 | 48.13698 | 16.69465 | 5027 ft | 345 kts | 186° |
| 2026-04-21 16:27 | 48.11319 | 16.69056 | 4542 ft | 343 kts | 186° |
| 2026-04-21 16:27 | 48.08982 | 16.68650 | 4074 ft | 341 kts | 186° |
| 2026-04-21 16:28 | 48.06626 | 16.68417 | 3588 ft | 339 kts | 175° |
| 2026-04-21 16:28 | 48.04305 | 16.68999 | 3148 ft | 336 kts | 167° |
| 2026-04-21 16:28 | 48.02059 | 16.69786 | 2969 ft | 325 kts | 165° |
| 2026-04-21 16:28 | 47.99896 | 16.70583 | 2830 ft | 313 kts | 165° |
| 2026-04-21 16:29 | 47.98514 | 16.71101 | 2727 ft | 305 kts | 165° |
| 2026-04-21 16:29 | 47.95820 | 16.71862 | 2500 ft | 289 kts | 185° |
| 2026-04-21 16:29 | 47.94026 | 16.70905 | 2488 ft | 266 kts | 222° |
| 2026-04-21 16:29 | 47.93037 | 16.68777 | 2502 ft | 241 kts | 261° |
| 2026-04-21 16:30 | 47.93147 | 16.66463 | 2468 ft | 215 kts | 301° |
| 2026-04-21 16:30 | 47.94175 | 16.65068 | 2485 ft | 195 kts | 339° |
| 2026-04-21 16:30 | 47.95460 | 16.64567 | 2503 ft | 190 kts | 349° |
| 2026-04-21 16:30 | 47.96736 | 16.64189 | 2500 ft | 189 kts | 347° |
| 2026-04-21 16:31 | 47.98009 | 16.63732 | 2501 ft | 184 kts | 345° |
| 2026-04-21 16:31 | 47.99186 | 16.63251 | 2508 ft | 165 kts | 344° |
| 2026-04-21 16:31 | 48.00233 | 16.62803 | 2426 ft | 148 kts | 344° |
| 2026-04-21 16:31 | 48.01162 | 16.62404 | 2254 ft | 134 kts | 344° |
| 2026-04-21 16:32 | 48.02050 | 16.62026 | 2063 ft | 132 kts | 344° |
| 2026-04-21 16:32 | 48.02934 | 16.61652 | 1876 ft | 131 kts | 343° |
| 2026-04-21 16:32 | 48.03807 | 16.61282 | 1701 ft | 130 kts | 342° |
| 2026-04-21 16:32 | 48.04681 | 16.60910 | 1511 ft | 131 kts | 342° |
| 2026-04-21 16:33 | 48.05538 | 16.60546 | 1332 ft | 129 kts | 342° |
| 2026-04-21 16:33 | 48.06415 | 16.60172 | 1131 ft | 135 kts | 343° |
| 2026-04-21 16:33 | 48.07326 | 16.59777 | 955 ft | 137 kts | 343° |
| 2026-04-21 16:33 | 48.08238 | 16.59386 | 757 ft | 138 kts | 345° |
| 2026-04-21 16:34 | 48.09165 | 16.59002 | 633 ft | 133 kts | 345° |
| 2026-04-21 16:34 | 48.09926 | 16.58683 | 627 ft | 99 kts | 344° |
| 2026-04-21 16:34 | 48.10505 | 16.58437 | 631 ft | 63 kts | 342° |
| 2026-04-21 16:34 | 48.10785 | 16.58191 | 627 ft | 43 kts | 315° |
| 2026-04-21 16:35 | 48.10987 | 16.57887 | 631 ft | 31 kts | 314° |
| 2026-04-21 16:35 | 48.11156 | 16.57688 | 631 ft | 31 kts | 309° |
| 2026-04-21 16:35 | 48.11229 | 16.57498 | 628 ft | 32 kts | 296° |